sensor_id;sensor_type;location;lat;lon;timestamp;P1;durP1;ratioP1;P2;durP2;ratioP2
8086;SDS011;4086;54.412;9.980;2022-11-20T00:00:28;5.17;;;4.17;;
8086;SDS011;4086;54.412;9.980;2022-11-20T00:02:54;5.07;;;3.73;;
8086;SDS011;4086;54.412;9.980;2022-11-20T00:05:22;4.63;;;3.90;;
8086;SDS011;4086;54.412;9.980;2022-11-20T00:07:48;5.23;;;3.80;;
8086;SDS011;4086;54.412;9.980;2022-11-20T00:10:15;4.17;;;3.63;;
8086;SDS011;4086;54.412;9.980;2022-11-20T00:12:41;4.60;;;4.03;;
8086;SDS011;4086;54.412;9.980;2022-11-20T00:15:08;4.00;;;3.60;;
8086;SDS011;4086;54.412;9.980;2022-11-20T00:17:35;5.03;;;3.70;;
8086;SDS011;4086;54.412;9.980;2022-11-20T00:20:01;4.73;;;4.03;;
8086;SDS011;4086;54.412;9.980;2022-11-20T00:22:29;5.10;;;3.70;;
8086;SDS011;4086;54.412;9.980;2022-11-20T00:24:56;5.20;;;4.10;;
8086;SDS011;4086;54.412;9.980;2022-11-20T00:27:23;7.77;;;4.50;;
8086;SDS011;4086;54.412;9.980;2022-11-20T00:29:49;6.63;;;4.47;;
8086;SDS011;4086;54.412;9.980;2022-11-20T00:32:16;6.37;;;4.17;;
8086;SDS011;4086;54.412;9.980;2022-11-20T00:34:42;5.10;;;4.40;;
8086;SDS011;4086;54.412;9.980;2022-11-20T00:37:09;6.40;;;4.73;;
8086;SDS011;4086;54.412;9.980;2022-11-20T00:39:36;4.33;;;3.93;;
8086;SDS011;4086;54.412;9.980;2022-11-20T00:42:03;4.90;;;4.40;;
8086;SDS011;4086;54.412;9.980;2022-11-20T00:44:29;6.43;;;4.73;;
8086;SDS011;4086;54.412;9.980;2022-11-20T00:46:56;4.50;;;3.70;;
8086;SDS011;4086;54.412;9.980;2022-11-20T00:49:23;4.13;;;3.73;;
8086;SDS011;4086;54.412;9.980;2022-11-20T00:51:49;4.60;;;3.90;;
8086;SDS011;4086;54.412;9.980;2022-11-20T00:54:16;4.03;;;3.43;;
8086;SDS011;4086;54.412;9.980;2022-11-20T00:56:43;4.57;;;3.40;;
8086;SDS011;4086;54.412;9.980;2022-11-20T00:59:10;3.70;;;3.20;;
8086;SDS011;4086;54.412;9.980;2022-11-20T01:01:36;3.63;;;3.33;;
8086;SDS011;4086;54.412;9.980;2022-11-20T01:04:03;5.77;;;3.57;;
8086;SDS011;4086;54.412;9.980;2022-11-20T01:06:30;2.87;;;2.67;;
8086;SDS011;4086;54.412;9.980;2022-11-20T01:08:58;2.97;;;2.73;;
8086;SDS011;4086;54.412;9.980;2022-11-20T01:11:26;3.97;;;2.80;;
8086;SDS011;4086;54.412;9.980;2022-11-20T01:13:54;3.67;;;3.03;;
8086;SDS011;4086;54.412;9.980;2022-11-20T01:16:22;3.10;;;2.67;;
8086;SDS011;4086;54.412;9.980;2022-11-20T01:18:50;3.30;;;3.00;;
8086;SDS011;4086;54.412;9.980;2022-11-20T01:21:18;4.83;;;2.80;;
8086;SDS011;4086;54.412;9.980;2022-11-20T01:23:45;3.70;;;3.40;;
8086;SDS011;4086;54.412;9.980;2022-11-20T01:26:14;4.57;;;3.60;;
8086;SDS011;4086;54.412;9.980;2022-11-20T01:28:42;5.13;;;3.97;;
8086;SDS011;4086;54.412;9.980;2022-11-20T01:31:13;4.30;;;3.90;;
8086;SDS011;4086;54.412;9.980;2022-11-20T01:33:42;5.77;;;3.53;;
8086;SDS011;4086;54.412;9.980;2022-11-20T01:36:09;3.57;;;3.27;;
8086;SDS011;4086;54.412;9.980;2022-11-20T01:38:36;7.07;;;4.00;;
8086;SDS011;4086;54.412;9.980;2022-11-20T01:41:03;5.70;;;3.50;;
8086;SDS011;4086;54.412;9.980;2022-11-20T01:43:30;4.60;;;3.70;;
8086;SDS011;4086;54.412;9.980;2022-11-20T01:45:56;5.03;;;3.87;;
8086;SDS011;4086;54.412;9.980;2022-11-20T01:48:28;3.90;;;3.50;;
8086;SDS011;4086;54.412;9.980;2022-11-20T01:50:57;6.17;;;3.97;;
8086;SDS011;4086;54.412;9.980;2022-11-20T01:53:25;7.43;;;4.13;;
8086;SDS011;4086;54.412;9.980;2022-11-20T01:55:55;5.00;;;3.73;;
8086;SDS011;4086;54.412;9.980;2022-11-20T01:58:24;4.20;;;3.47;;
8086;SDS011;4086;54.412;9.980;2022-11-20T02:00:52;3.80;;;3.40;;
8086;SDS011;4086;54.412;9.980;2022-11-20T02:03:20;6.20;;;3.70;;
8086;SDS011;4086;54.412;9.980;2022-11-20T02:05:50;6.23;;;4.23;;
8086;SDS011;4086;54.412;9.980;2022-11-20T02:08:18;4.53;;;3.60;;
8086;SDS011;4086;54.412;9.980;2022-11-20T02:10:45;5.33;;;3.50;;
8086;SDS011;4086;54.412;9.980;2022-11-20T02:13:11;4.50;;;3.20;;
8086;SDS011;4086;54.412;9.980;2022-11-20T02:15:56;4.50;;;4.07;;
8086;SDS011;4086;54.412;9.980;2022-11-20T02:18:22;4.60;;;3.80;;
8086;SDS011;4086;54.412;9.980;2022-11-20T02:20:53;5.10;;;3.37;;
8086;SDS011;4086;54.412;9.980;2022-11-20T02:23:23;4.30;;;3.23;;
8086;SDS011;4086;54.412;9.980;2022-11-20T02:25:54;4.60;;;3.73;;
8086;SDS011;4086;54.412;9.980;2022-11-20T02:28:21;4.20;;;3.80;;
8086;SDS011;4086;54.412;9.980;2022-11-20T02:30:48;5.47;;;3.90;;
8086;SDS011;4086;54.412;9.980;2022-11-20T02:33:14;5.43;;;4.10;;
8086;SDS011;4086;54.412;9.980;2022-11-20T02:35:44;4.17;;;3.70;;
8086;SDS011;4086;54.412;9.980;2022-11-20T02:38:11;3.80;;;3.47;;
8086;SDS011;4086;54.412;9.980;2022-11-20T02:40:38;5.27;;;3.73;;
8086;SDS011;4086;54.412;9.980;2022-11-20T02:43:05;5.57;;;3.80;;
8086;SDS011;4086;54.412;9.980;2022-11-20T02:45:32;4.40;;;3.83;;
8086;SDS011;4086;54.412;9.980;2022-11-20T02:47:59;4.37;;;3.50;;
8086;SDS011;4086;54.412;9.980;2022-11-20T02:50:25;5.70;;;4.00;;
8086;SDS011;4086;54.412;9.980;2022-11-20T02:52:52;4.00;;;3.30;;
8086;SDS011;4086;54.412;9.980;2022-11-20T02:55:20;5.80;;;4.53;;
8086;SDS011;4086;54.412;9.980;2022-11-20T02:57:46;4.07;;;3.67;;
8086;SDS011;4086;54.412;9.980;2022-11-20T03:00:14;4.17;;;3.73;;
8086;SDS011;4086;54.412;9.980;2022-11-20T03:02:41;5.40;;;4.07;;
8086;SDS011;4086;54.412;9.980;2022-11-20T03:05:07;4.57;;;3.97;;
8086;SDS011;4086;54.412;9.980;2022-11-20T03:07:34;4.77;;;3.87;;
8086;SDS011;4086;54.412;9.980;2022-11-20T03:10:00;5.17;;;3.60;;
8086;SDS011;4086;54.412;9.980;2022-11-20T03:12:27;5.07;;;3.40;;
8086;SDS011;4086;54.412;9.980;2022-11-20T03:14:53;4.53;;;3.80;;
8086;SDS011;4086;54.412;9.980;2022-11-20T03:17:21;5.60;;;3.83;;
8086;SDS011;4086;54.412;9.980;2022-11-20T03:19:48;4.27;;;3.83;;
8086;SDS011;4086;54.412;9.980;2022-11-20T03:22:15;4.07;;;3.63;;
8086;SDS011;4086;54.412;9.980;2022-11-20T03:24:41;6.93;;;4.10;;
8086;SDS011;4086;54.412;9.980;2022-11-20T03:27:07;5.07;;;3.77;;
8086;SDS011;4086;54.412;9.980;2022-11-20T03:29:34;4.60;;;3.93;;
8086;SDS011;4086;54.412;9.980;2022-11-20T03:32:01;4.23;;;3.60;;
8086;SDS011;4086;54.412;9.980;2022-11-20T03:34:28;4.77;;;3.57;;
8086;SDS011;4086;54.412;9.980;2022-11-20T03:36:55;4.10;;;3.70;;
8086;SDS011;4086;54.412;9.980;2022-11-20T03:39:21;4.57;;;3.80;;
8086;SDS011;4086;54.412;9.980;2022-11-20T03:41:47;3.80;;;3.50;;
8086;SDS011;4086;54.412;9.980;2022-11-20T03:44:14;5.43;;;3.73;;
8086;SDS011;4086;54.412;9.980;2022-11-20T03:46:40;4.67;;;3.60;;
8086;SDS011;4086;54.412;9.980;2022-11-20T03:49:07;3.97;;;3.57;;
8086;SDS011;4086;54.412;9.980;2022-11-20T03:51:35;4.77;;;3.90;;
8086;SDS011;4086;54.412;9.980;2022-11-20T03:54:02;4.70;;;4.00;;
8086;SDS011;4086;54.412;9.980;2022-11-20T03:56:31;6.33;;;3.60;;
8086;SDS011;4086;54.412;9.980;2022-11-20T03:58:58;4.00;;;3.60;;
8086;SDS011;4086;54.412;9.980;2022-11-20T04:01:26;4.23;;;3.37;;
8086;SDS011;4086;54.412;9.980;2022-11-20T04:03:54;3.90;;;3.40;;
8086;SDS011;4086;54.412;9.980;2022-11-20T04:06:22;4.17;;;3.33;;
8086;SDS011;4086;54.412;9.980;2022-11-20T04:08:50;4.27;;;3.73;;
8086;SDS011;4086;54.412;9.980;2022-11-20T04:11:17;4.67;;;3.60;;
8086;SDS011;4086;54.412;9.980;2022-11-20T04:13:46;3.80;;;3.20;;
8086;SDS011;4086;54.412;9.980;2022-11-20T04:16:13;4.03;;;3.63;;
8086;SDS011;4086;54.412;9.980;2022-11-20T04:18:40;3.77;;;3.40;;
8086;SDS011;4086;54.412;9.980;2022-11-20T04:21:07;3.73;;;3.30;;
8086;SDS011;4086;54.412;9.980;2022-11-20T04:23:33;3.30;;;3.00;;
8086;SDS011;4086;54.412;9.980;2022-11-20T04:26:02;3.77;;;3.13;;
8086;SDS011;4086;54.412;9.980;2022-11-20T04:28:29;4.07;;;3.53;;
8086;SDS011;4086;54.412;9.980;2022-11-20T04:31:01;4.93;;;3.23;;
8086;SDS011;4086;54.412;9.980;2022-11-20T04:33:28;4.40;;;3.83;;
8086;SDS011;4086;54.412;9.980;2022-11-20T04:35:54;4.60;;;2.97;;
8086;SDS011;4086;54.412;9.980;2022-11-20T04:38:21;3.17;;;2.87;;
8086;SDS011;4086;54.412;9.980;2022-11-20T04:40:47;6.03;;;2.87;;
8086;SDS011;4086;54.412;9.980;2022-11-20T04:43:15;3.30;;;3.00;;
8086;SDS011;4086;54.412;9.980;2022-11-20T04:45:41;2.73;;;2.27;;
8086;SDS011;4086;54.412;9.980;2022-11-20T04:48:08;2.70;;;2.50;;
8086;SDS011;4086;54.412;9.980;2022-11-20T04:50:34;2.67;;;2.20;;
8086;SDS011;4086;54.412;9.980;2022-11-20T04:53:05;2.50;;;2.30;;
8086;SDS011;4086;54.412;9.980;2022-11-20T04:55:32;2.53;;;2.33;;
8086;SDS011;4086;54.412;9.980;2022-11-20T04:57:58;2.80;;;2.47;;
8086;SDS011;4086;54.412;9.980;2022-11-20T05:00:26;2.67;;;2.47;;
8086;SDS011;4086;54.412;9.980;2022-11-20T05:02:53;2.80;;;2.60;;
8086;SDS011;4086;54.412;9.980;2022-11-20T05:05:20;2.90;;;2.60;;
8086;SDS011;4086;54.412;9.980;2022-11-20T05:07:48;2.73;;;2.53;;
8086;SDS011;4086;54.412;9.980;2022-11-20T05:10:14;2.60;;;2.40;;
8086;SDS011;4086;54.412;9.980;2022-11-20T05:12:41;2.67;;;2.47;;
8086;SDS011;4086;54.412;9.980;2022-11-20T05:15:08;2.60;;;2.40;;
8086;SDS011;4086;54.412;9.980;2022-11-20T05:17:36;2.77;;;2.50;;
8086;SDS011;4086;54.412;9.980;2022-11-20T05:20:03;2.73;;;2.50;;
8086;SDS011;4086;54.412;9.980;2022-11-20T05:22:31;3.00;;;2.70;;
8086;SDS011;4086;54.412;9.980;2022-11-20T05:24:57;2.63;;;2.43;;
8086;SDS011;4086;54.412;9.980;2022-11-20T05:27:23;3.20;;;2.90;;
8086;SDS011;4086;54.412;9.980;2022-11-20T05:29:50;3.87;;;2.93;;
8086;SDS011;4086;54.412;9.980;2022-11-20T05:32:16;3.70;;;2.90;;
8086;SDS011;4086;54.412;9.980;2022-11-20T05:34:44;3.10;;;2.80;;
8086;SDS011;4086;54.412;9.980;2022-11-20T05:37:10;3.30;;;3.00;;
8086;SDS011;4086;54.412;9.980;2022-11-20T05:39:36;2.73;;;2.53;;
8086;SDS011;4086;54.412;9.980;2022-11-20T05:42:03;2.87;;;2.67;;
8086;SDS011;4086;54.412;9.980;2022-11-20T05:44:58;3.60;;;2.90;;
8086;SDS011;4086;54.412;9.980;2022-11-20T05:47:25;2.77;;;2.57;;
8086;SDS011;4086;54.412;9.980;2022-11-20T05:49:54;3.00;;;2.70;;
8086;SDS011;4086;54.412;9.980;2022-11-20T05:52:20;2.20;;;2.10;;
8086;SDS011;4086;54.412;9.980;2022-11-20T05:54:47;3.00;;;2.70;;
8086;SDS011;4086;54.412;9.980;2022-11-20T05:57:13;2.63;;;2.43;;
8086;SDS011;4086;54.412;9.980;2022-11-20T05:59:40;2.80;;;2.60;;
8086;SDS011;4086;54.412;9.980;2022-11-20T06:02:06;2.30;;;2.10;;
8086;SDS011;4086;54.412;9.980;2022-11-20T06:04:33;2.57;;;2.37;;
8086;SDS011;4086;54.412;9.980;2022-11-20T06:07:00;2.60;;;2.40;;
8086;SDS011;4086;54.412;9.980;2022-11-20T06:09:27;4.00;;;2.80;;
8086;SDS011;4086;54.412;9.980;2022-11-20T06:11:53;3.03;;;2.73;;
8086;SDS011;4086;54.412;9.980;2022-11-20T06:14:20;3.57;;;2.73;;
8086;SDS011;4086;54.412;9.980;2022-11-20T06:16:46;2.60;;;2.40;;
8086;SDS011;4086;54.412;9.980;2022-11-20T06:19:12;2.60;;;2.20;;
8086;SDS011;4086;54.412;9.980;2022-11-20T06:21:39;2.83;;;2.63;;
8086;SDS011;4086;54.412;9.980;2022-11-20T06:24:08;2.73;;;2.50;;
8086;SDS011;4086;54.412;9.980;2022-11-20T06:26:34;3.00;;;2.70;;
8086;SDS011;4086;54.412;9.980;2022-11-20T06:29:01;3.80;;;2.60;;
8086;SDS011;4086;54.412;9.980;2022-11-20T06:31:27;3.10;;;2.67;;
8086;SDS011;4086;54.412;9.980;2022-11-20T06:33:54;3.03;;;2.80;;
8086;SDS011;4086;54.412;9.980;2022-11-20T06:36:21;4.03;;;2.83;;
8086;SDS011;4086;54.412;9.980;2022-11-20T06:38:48;3.83;;;2.87;;
8086;SDS011;4086;54.412;9.980;2022-11-20T06:41:16;2.73;;;2.50;;
8086;SDS011;4086;54.412;9.980;2022-11-20T06:43:43;2.63;;;2.43;;
8086;SDS011;4086;54.412;9.980;2022-11-20T06:46:10;2.70;;;2.50;;
8086;SDS011;4086;54.412;9.980;2022-11-20T06:48:38;2.70;;;2.50;;
8086;SDS011;4086;54.412;9.980;2022-11-20T06:51:05;2.67;;;2.47;;
8086;SDS011;4086;54.412;9.980;2022-11-20T06:53:32;2.87;;;2.57;;
8086;SDS011;4086;54.412;9.980;2022-11-20T06:55:59;2.97;;;2.77;;
8086;SDS011;4086;54.412;9.980;2022-11-20T06:58:27;3.13;;;2.73;;
8086;SDS011;4086;54.412;9.980;2022-11-20T07:00:54;2.30;;;2.10;;
8086;SDS011;4086;54.412;9.980;2022-11-20T07:03:24;2.10;;;2.00;;
8086;SDS011;4086;54.412;9.980;2022-11-20T07:05:50;2.33;;;1.80;;
8086;SDS011;4086;54.412;9.980;2022-11-20T07:08:16;1.77;;;1.67;;
8086;SDS011;4086;54.412;9.980;2022-11-20T07:10:43;1.60;;;1.50;;
8086;SDS011;4086;54.412;9.980;2022-11-20T07:13:09;2.37;;;1.70;;
8086;SDS011;4086;54.412;9.980;2022-11-20T07:15:37;2.57;;;1.83;;
8086;SDS011;4086;54.412;9.980;2022-11-20T07:18:03;1.83;;;1.73;;
8086;SDS011;4086;54.412;9.980;2022-11-20T07:20:30;2.87;;;2.20;;
8086;SDS011;4086;54.412;9.980;2022-11-20T07:22:56;2.13;;;1.90;;
8086;SDS011;4086;54.412;9.980;2022-11-20T07:25:23;3.00;;;2.47;;
8086;SDS011;4086;54.412;9.980;2022-11-20T07:27:50;7.53;;;6.83;;
8086;SDS011;4086;54.412;9.980;2022-11-20T07:30:16;4.20;;;3.90;;
8086;SDS011;4086;54.412;9.980;2022-11-20T07:32:47;3.37;;;3.07;;
8086;SDS011;4086;54.412;9.980;2022-11-20T07:35:14;3.30;;;2.67;;
8086;SDS011;4086;54.412;9.980;2022-11-20T07:37:40;2.33;;;2.17;;
8086;SDS011;4086;54.412;9.980;2022-11-20T07:40:07;2.53;;;1.93;;
8086;SDS011;4086;54.412;9.980;2022-11-20T07:42:34;1.50;;;1.37;;
8086;SDS011;4086;54.412;9.980;2022-11-20T07:45:00;1.60;;;1.50;;
8086;SDS011;4086;54.412;9.980;2022-11-20T07:47:26;1.10;;;1.10;;
8086;SDS011;4086;54.412;9.980;2022-11-20T07:49:54;1.43;;;1.33;;
8086;SDS011;4086;54.412;9.980;2022-11-20T07:52:21;1.23;;;1.17;;
8086;SDS011;4086;54.412;9.980;2022-11-20T07:54:47;1.00;;;1.00;;
8086;SDS011;4086;54.412;9.980;2022-11-20T07:57:14;1.30;;;1.20;;
8086;SDS011;4086;54.412;9.980;2022-11-20T07:59:42;1.23;;;0.70;;
8086;SDS011;4086;54.412;9.980;2022-11-20T08:02:09;1.10;;;1.10;;
8086;SDS011;4086;54.412;9.980;2022-11-20T08:04:36;1.03;;;0.90;;
8086;SDS011;4086;54.412;9.980;2022-11-20T08:07:03;0.83;;;0.83;;
8086;SDS011;4086;54.412;9.980;2022-11-20T08:09:31;1.00;;;1.00;;
8086;SDS011;4086;54.412;9.980;2022-11-20T08:11:58;1.00;;;1.00;;
8086;SDS011;4086;54.412;9.980;2022-11-20T08:14:42;1.00;;;1.00;;
8086;SDS011;4086;54.412;9.980;2022-11-20T08:17:08;1.03;;;1.03;;
8086;SDS011;4086;54.412;9.980;2022-11-20T08:19:35;1.80;;;1.60;;
8086;SDS011;4086;54.412;9.980;2022-11-20T08:22:01;1.30;;;1.30;;
8086;SDS011;4086;54.412;9.980;2022-11-20T08:24:29;1.20;;;1.20;;
8086;SDS011;4086;54.412;9.980;2022-11-20T08:26:57;1.10;;;1.10;;
8086;SDS011;4086;54.412;9.980;2022-11-20T08:29:23;1.43;;;1.33;;
8086;SDS011;4086;54.412;9.980;2022-11-20T08:31:49;1.50;;;1.40;;
8086;SDS011;4086;54.412;9.980;2022-11-20T08:34:16;1.57;;;1.47;;
8086;SDS011;4086;54.412;9.980;2022-11-20T08:36:42;6.23;;;2.90;;
8086;SDS011;4086;54.412;9.980;2022-11-20T08:39:11;2.90;;;2.43;;
8086;SDS011;4086;54.412;9.980;2022-11-20T08:41:39;2.60;;;2.40;;
8086;SDS011;4086;54.412;9.980;2022-11-20T08:44:06;2.40;;;2.20;;
8086;SDS011;4086;54.412;9.980;2022-11-20T08:46:34;3.17;;;2.87;;
8086;SDS011;4086;54.412;9.980;2022-11-20T08:49:02;4.30;;;3.20;;
8086;SDS011;4086;54.412;9.980;2022-11-20T08:51:28;3.27;;;2.90;;
8086;SDS011;4086;54.412;9.980;2022-11-20T08:53:55;2.87;;;2.67;;
8086;SDS011;4086;54.412;9.980;2022-11-20T08:56:21;3.30;;;3.00;;
8086;SDS011;4086;54.412;9.980;2022-11-20T08:58:50;3.50;;;3.20;;
8086;SDS011;4086;54.412;9.980;2022-11-20T09:01:17;2.93;;;2.73;;
8086;SDS011;4086;54.412;9.980;2022-11-20T09:03:44;2.87;;;2.67;;
8086;SDS011;4086;54.412;9.980;2022-11-20T09:06:10;3.10;;;2.90;;
8086;SDS011;4086;54.412;9.980;2022-11-20T09:08:36;3.30;;;3.00;;
8086;SDS011;4086;54.412;9.980;2022-11-20T09:11:03;4.73;;;3.50;;
8086;SDS011;4086;54.412;9.980;2022-11-20T09:13:30;3.23;;;3.00;;
8086;SDS011;4086;54.412;9.980;2022-11-20T09:15:59;3.37;;;3.07;;
8086;SDS011;4086;54.412;9.980;2022-11-20T09:18:26;4.90;;;3.00;;
8086;SDS011;4086;54.412;9.980;2022-11-20T09:20:56;4.00;;;2.90;;
8086;SDS011;4086;54.412;9.980;2022-11-20T09:23:22;3.70;;;3.00;;
8086;SDS011;4086;54.412;9.980;2022-11-20T09:25:49;2.90;;;2.70;;
8086;SDS011;4086;54.412;9.980;2022-11-20T09:28:17;3.50;;;3.20;;
8086;SDS011;4086;54.412;9.980;2022-11-20T09:30:44;3.47;;;3.17;;
8086;SDS011;4086;54.412;9.980;2022-11-20T09:33:12;3.47;;;2.63;;
8086;SDS011;4086;54.412;9.980;2022-11-20T09:35:38;3.33;;;3.03;;
8086;SDS011;4086;54.412;9.980;2022-11-20T09:38:05;5.20;;;3.50;;
8086;SDS011;4086;54.412;9.980;2022-11-20T09:40:32;3.20;;;2.90;;
8086;SDS011;4086;54.412;9.980;2022-11-20T09:43:01;3.27;;;2.97;;
8086;SDS011;4086;54.412;9.980;2022-11-20T09:45:35;3.13;;;2.77;;
8086;SDS011;4086;54.412;9.980;2022-11-20T09:48:15;4.50;;;2.87;;
8086;SDS011;4086;54.412;9.980;2022-11-20T09:51:04;3.57;;;2.57;;
8086;SDS011;4086;54.412;9.980;2022-11-20T09:53:41;2.60;;;2.40;;
8086;SDS011;4086;54.412;9.980;2022-11-20T09:56:12;4.53;;;3.10;;
8086;SDS011;4086;54.412;9.980;2022-11-20T09:58:40;4.17;;;3.77;;
8086;SDS011;4086;54.412;9.980;2022-11-20T10:01:10;5.47;;;4.70;;
8086;SDS011;4086;54.412;9.980;2022-11-20T10:03:41;3.23;;;2.93;;
8086;SDS011;4086;54.412;9.980;2022-11-20T10:06:14;3.77;;;3.37;;
8086;SDS011;4086;54.412;9.980;2022-11-20T10:08:44;3.70;;;3.40;;
8086;SDS011;4086;54.412;9.980;2022-11-20T10:11:13;3.20;;;2.90;;
8086;SDS011;4086;54.412;9.980;2022-11-20T10:13:46;3.47;;;3.00;;
8086;SDS011;4086;54.412;9.980;2022-11-20T10:16:20;3.00;;;2.60;;
8086;SDS011;4086;54.412;9.980;2022-11-20T10:19:01;2.93;;;2.70;;
8086;SDS011;4086;54.412;9.980;2022-11-20T10:21:36;2.43;;;2.23;;
8086;SDS011;4086;54.412;9.980;2022-11-20T10:24:23;4.90;;;2.97;;
8086;SDS011;4086;54.412;9.980;2022-11-20T10:26:56;3.00;;;2.80;;
8086;SDS011;4086;54.412;9.980;2022-11-20T10:29:27;2.57;;;2.37;;
8086;SDS011;4086;54.412;9.980;2022-11-20T10:31:56;2.90;;;2.30;;
8086;SDS011;4086;54.412;9.980;2022-11-20T10:34:30;2.30;;;2.13;;
8086;SDS011;4086;54.412;9.980;2022-11-20T10:37:00;2.80;;;2.60;;
8086;SDS011;4086;54.412;9.980;2022-11-20T10:39:32;2.90;;;2.70;;
8086;SDS011;4086;54.412;9.980;2022-11-20T10:42:00;2.73;;;2.13;;
8086;SDS011;4086;54.412;9.980;2022-11-20T10:44:27;2.10;;;2.00;;
8086;SDS011;4086;54.412;9.980;2022-11-20T10:47:13;2.83;;;2.60;;
8086;SDS011;4086;54.412;9.980;2022-11-20T10:49:42;3.83;;;3.23;;
8086;SDS011;4086;54.412;9.980;2022-11-20T10:52:11;2.20;;;2.00;;
8086;SDS011;4086;54.412;9.980;2022-11-20T10:54:43;2.37;;;2.23;;
8086;SDS011;4086;54.412;9.980;2022-11-20T10:57:17;2.70;;;2.50;;
8086;SDS011;4086;54.412;9.980;2022-11-20T11:00:00;2.70;;;2.50;;
8086;SDS011;4086;54.412;9.980;2022-11-20T11:05:16;2.20;;;2.10;;
8086;SDS011;4086;54.412;9.980;2022-11-20T11:07:49;4.43;;;2.07;;
8086;SDS011;4086;54.412;9.980;2022-11-20T11:10:17;2.30;;;2.10;;
8086;SDS011;4086;54.412;9.980;2022-11-20T11:12:46;1.93;;;1.83;;
8086;SDS011;4086;54.412;9.980;2022-11-20T11:15:15;2.70;;;1.60;;
8086;SDS011;4086;54.412;9.980;2022-11-20T11:17:52;1.90;;;1.80;;
8086;SDS011;4086;54.412;9.980;2022-11-20T11:20:20;1.93;;;1.83;;
8086;SDS011;4086;54.412;9.980;2022-11-20T11:22:48;1.87;;;1.77;;
8086;SDS011;4086;54.412;9.980;2022-11-20T11:25:19;2.03;;;1.93;;
8086;SDS011;4086;54.412;9.980;2022-11-20T11:27:49;2.20;;;2.00;;
8086;SDS011;4086;54.412;9.980;2022-11-20T11:30:16;2.07;;;1.90;;
8086;SDS011;4086;54.412;9.980;2022-11-20T11:32:44;2.13;;;1.80;;
8086;SDS011;4086;54.412;9.980;2022-11-20T11:35:20;1.83;;;1.73;;
8086;SDS011;4086;54.412;9.980;2022-11-20T11:37:49;1.90;;;1.80;;
8086;SDS011;4086;54.412;9.980;2022-11-20T11:40:19;1.80;;;1.50;;
8086;SDS011;4086;54.412;9.980;2022-11-20T11:42:46;2.00;;;1.90;;
8086;SDS011;4086;54.412;9.980;2022-11-20T11:45:18;1.83;;;1.73;;
8086;SDS011;4086;54.412;9.980;2022-11-20T11:47:44;1.90;;;1.80;;
8086;SDS011;4086;54.412;9.980;2022-11-20T11:50:17;2.67;;;1.50;;
8086;SDS011;4086;54.412;9.980;2022-11-20T11:52:49;1.83;;;1.67;;
8086;SDS011;4086;54.412;9.980;2022-11-20T11:55:24;1.93;;;1.50;;
8086;SDS011;4086;54.412;9.980;2022-11-20T11:57:55;1.60;;;1.50;;
8086;SDS011;4086;54.412;9.980;2022-11-20T12:00:35;1.60;;;1.50;;
8086;SDS011;4086;54.412;9.980;2022-11-20T12:03:04;1.50;;;1.50;;
8086;SDS011;4086;54.412;9.980;2022-11-20T12:05:38;1.60;;;1.50;;
8086;SDS011;4086;54.412;9.980;2022-11-20T12:08:10;1.50;;;1.40;;
8086;SDS011;4086;54.412;9.980;2022-11-20T12:10:43;2.50;;;2.03;;
8086;SDS011;4086;54.412;9.980;2022-11-20T12:13:15;6.23;;;3.43;;
8086;SDS011;4086;54.412;9.980;2022-11-20T12:15:47;2.67;;;2.40;;
8086;SDS011;4086;54.412;9.980;2022-11-20T12:18:15;2.43;;;2.23;;
8086;SDS011;4086;54.412;9.980;2022-11-20T12:20:45;1.53;;;1.40;;
8086;SDS011;4086;54.412;9.980;2022-11-20T12:23:18;2.90;;;2.60;;
8086;SDS011;4086;54.412;9.980;2022-11-20T12:25:53;1.93;;;1.50;;
8086;SDS011;4086;54.412;9.980;2022-11-20T12:28:27;4.10;;;2.57;;
8086;SDS011;4086;54.412;9.980;2022-11-20T12:31:05;3.40;;;3.00;;
8086;SDS011;4086;54.412;9.980;2022-11-20T12:33:51;1.77;;;1.67;;
8086;SDS011;4086;54.412;9.980;2022-11-20T12:36:27;2.30;;;2.10;;
8086;SDS011;4086;54.412;9.980;2022-11-20T12:39:07;1.97;;;1.87;;
8086;SDS011;4086;54.412;9.980;2022-11-20T12:41:47;1.67;;;1.57;;
8086;SDS011;4086;54.412;9.980;2022-11-20T12:44:59;4.53;;;2.07;;
8086;SDS011;4086;54.412;9.980;2022-11-20T12:47:45;2.20;;;2.10;;
8086;SDS011;4086;54.412;9.980;2022-11-20T12:50:17;2.07;;;1.90;;
8086;SDS011;4086;54.412;9.980;2022-11-20T12:52:51;2.43;;;1.87;;
8086;SDS011;4086;54.412;9.980;2022-11-20T12:55:25;3.20;;;2.90;;
8086;SDS011;4086;54.412;9.980;2022-11-20T12:57:58;2.73;;;2.53;;
8086;SDS011;4086;54.412;9.980;2022-11-20T13:00:28;2.90;;;2.70;;
8086;SDS011;4086;54.412;9.980;2022-11-20T13:03:13;2.20;;;1.97;;
8086;SDS011;4086;54.412;9.980;2022-11-20T13:05:51;2.60;;;2.40;;
8086;SDS011;4086;54.412;9.980;2022-11-20T13:08:24;6.50;;;5.40;;
8086;SDS011;4086;54.412;9.980;2022-11-20T13:10:54;3.70;;;2.90;;
8086;SDS011;4086;54.412;9.980;2022-11-20T13:13:25;4.23;;;3.83;;
8086;SDS011;4086;54.412;9.980;2022-11-20T13:16:00;2.63;;;2.40;;
8086;SDS011;4086;54.412;9.980;2022-11-20T13:18:31;2.50;;;2.30;;
8086;SDS011;4086;54.412;9.980;2022-11-20T13:21:01;2.30;;;2.10;;
8086;SDS011;4086;54.412;9.980;2022-11-20T13:23:41;2.23;;;1.83;;
8086;SDS011;4086;54.412;9.980;2022-11-20T13:26:13;2.23;;;2.03;;
8086;SDS011;4086;54.412;9.980;2022-11-20T13:28:42;2.63;;;2.43;;
8086;SDS011;4086;54.412;9.980;2022-11-20T13:31:09;2.17;;;1.97;;
8086;SDS011;4086;54.412;9.980;2022-11-20T13:33:51;3.03;;;2.30;;
8086;SDS011;4086;54.412;9.980;2022-11-20T13:36:20;3.00;;;2.80;;
8086;SDS011;4086;54.412;9.980;2022-11-20T13:38:49;1.87;;;1.57;;
8086;SDS011;4086;54.412;9.980;2022-11-20T13:41:23;2.20;;;2.03;;
8086;SDS011;4086;54.412;9.980;2022-11-20T13:43:59;1.77;;;1.67;;
8086;SDS011;4086;54.412;9.980;2022-11-20T13:46:37;2.00;;;1.80;;
8086;SDS011;4086;54.412;9.980;2022-11-20T13:49:06;2.00;;;1.70;;
8086;SDS011;4086;54.412;9.980;2022-11-20T13:51:37;2.03;;;1.70;;
8086;SDS011;4086;54.412;9.980;2022-11-20T13:57:08;1.90;;;1.80;;
8086;SDS011;4086;54.412;9.980;2022-11-20T13:59:48;2.03;;;1.93;;
8086;SDS011;4086;54.412;9.980;2022-11-20T14:02:20;2.10;;;1.80;;
8086;SDS011;4086;54.412;9.980;2022-11-20T14:04:48;2.30;;;1.80;;
8086;SDS011;4086;54.412;9.980;2022-11-20T14:07:16;1.83;;;1.73;;
8086;SDS011;4086;54.412;9.980;2022-11-20T14:09:50;1.63;;;1.50;;
8086;SDS011;4086;54.412;9.980;2022-11-20T14:12:18;2.30;;;1.90;;
8086;SDS011;4086;54.412;9.980;2022-11-20T14:14:48;1.70;;;1.60;;
8086;SDS011;4086;54.412;9.980;2022-11-20T14:17:17;1.50;;;1.40;;
8086;SDS011;4086;54.412;9.980;2022-11-20T14:19:45;1.57;;;1.47;;
8086;SDS011;4086;54.412;9.980;2022-11-20T14:22:17;1.50;;;1.43;;
8086;SDS011;4086;54.412;9.980;2022-11-20T14:24:46;1.47;;;1.37;;
8086;SDS011;4086;54.412;9.980;2022-11-20T14:27:14;1.30;;;1.30;;
8086;SDS011;4086;54.412;9.980;2022-11-20T14:29:42;1.60;;;1.50;;
8086;SDS011;4086;54.412;9.980;2022-11-20T14:32:09;1.70;;;1.60;;
8086;SDS011;4086;54.412;9.980;2022-11-20T14:34:37;2.00;;;1.43;;
8086;SDS011;4086;54.412;9.980;2022-11-20T14:37:09;1.83;;;1.73;;
8086;SDS011;4086;54.412;9.980;2022-11-20T14:39:40;2.40;;;1.83;;
8086;SDS011;4086;54.412;9.980;2022-11-20T14:42:13;2.00;;;1.90;;
8086;SDS011;4086;54.412;9.980;2022-11-20T14:44:42;2.00;;;1.90;;
8086;SDS011;4086;54.412;9.980;2022-11-20T14:47:10;1.60;;;1.50;;
8086;SDS011;4086;54.412;9.980;2022-11-20T14:49:38;1.60;;;1.50;;
8086;SDS011;4086;54.412;9.980;2022-11-20T14:52:10;2.90;;;2.20;;
8086;SDS011;4086;54.412;9.980;2022-11-20T14:54:43;3.17;;;2.17;;
8086;SDS011;4086;54.412;9.980;2022-11-20T14:57:19;7.10;;;3.17;;
8086;SDS011;4086;54.412;9.980;2022-11-20T14:59:48;7.57;;;3.80;;
8086;SDS011;4086;54.412;9.980;2022-11-20T15:02:18;21.63;;;8.53;;
8086;SDS011;4086;54.412;9.980;2022-11-20T15:04:45;20.10;;;9.03;;
8086;SDS011;4086;54.412;9.980;2022-11-20T15:07:22;14.37;;;6.93;;
8086;SDS011;4086;54.412;9.980;2022-11-20T15:09:58;4.73;;;3.27;;
8086;SDS011;4086;54.412;9.980;2022-11-20T15:12:27;3.73;;;3.07;;
8086;SDS011;4086;54.412;9.980;2022-11-20T15:14:53;4.87;;;3.57;;
8086;SDS011;4086;54.412;9.980;2022-11-20T15:17:19;5.60;;;4.57;;
8086;SDS011;4086;54.412;9.980;2022-11-20T15:19:46;6.27;;;4.37;;
8086;SDS011;4086;54.412;9.980;2022-11-20T15:22:12;4.80;;;3.83;;
8086;SDS011;4086;54.412;9.980;2022-11-20T15:24:41;3.97;;;3.57;;
8086;SDS011;4086;54.412;9.980;2022-11-20T15:27:07;4.70;;;3.50;;
8086;SDS011;4086;54.412;9.980;2022-11-20T15:29:35;5.47;;;3.87;;
8086;SDS011;4086;54.412;9.980;2022-11-20T15:32:01;4.33;;;3.33;;